createdAt,value
2022-09-02T00:01:27.584Z,99.90
2022-09-02T00:04:05.511Z,99.90
2022-09-02T00:06:33.998Z,99.90
2022-09-02T00:09:01.320Z,99.90
2022-09-02T00:11:31.546Z,99.90
2022-09-02T00:14:02.869Z,99.90
2022-09-02T00:16:31.936Z,99.90
2022-09-02T00:19:00.474Z,99.90
2022-09-02T00:21:27.732Z,99.90
2022-09-02T00:23:54.776Z,99.90
2022-09-02T00:26:22.894Z,99.90
2022-09-02T00:28:55.972Z,99.90
2022-09-02T00:31:27.653Z,99.90
2022-09-02T00:33:55.809Z,99.90
2022-09-02T00:36:22.790Z,99.90
2022-09-02T00:38:49.949Z,99.90
2022-09-02T00:41:21.468Z,99.90
2022-09-02T00:43:57.626Z,99.90
2022-09-02T00:46:28.146Z,99.90
2022-09-02T00:49:24.927Z,99.90
2022-09-02T00:52:06.054Z,99.90
2022-09-02T00:54:37.679Z,99.90
2022-09-02T00:57:19.546Z,99.90
2022-09-02T00:59:59.414Z,99.90
2022-09-02T01:02:28.815Z,99.90
2022-09-02T01:04:56.772Z,99.90
2022-09-02T01:07:27.365Z,99.90
2022-09-02T01:09:56.007Z,99.90
2022-09-02T01:12:24.553Z,99.90
2022-09-02T01:14:51.462Z,99.90
2022-09-02T01:17:20.272Z,99.90
2022-09-02T01:19:54.500Z,99.90
2022-09-02T01:22:27.345Z,99.90
2022-09-02T01:24:59.938Z,99.90
2022-09-02T01:27:27.548Z,99.90
2022-09-02T01:30:00.175Z,99.90
2022-09-02T01:32:29.994Z,99.90
2022-09-02T01:34:57.855Z,99.90
2022-09-02T01:37:25.550Z,99.90
2022-09-02T01:39:52.998Z,99.90
2022-09-02T01:42:21.330Z,99.90
2022-09-02T01:44:48.836Z,99.90
2022-09-02T01:47:21.555Z,99.90
2022-09-02T01:49:49.823Z,99.90
2022-09-02T01:52:17.836Z,99.90
2022-09-02T01:54:44.728Z,99.90
2022-09-02T01:57:13.162Z,99.90
2022-09-02T01:59:40.101Z,99.90
2022-09-02T02:02:07.758Z,99.90
2022-09-02T02:04:35.393Z,99.90
2022-09-02T02:07:03.371Z,99.90
2022-09-02T02:09:30.317Z,99.90
2022-09-02T02:11:57.287Z,99.90
2022-09-02T02:14:24.438Z,99.90
2022-09-02T02:16:51.434Z,99.90
2022-09-02T02:19:18.461Z,99.90
2022-09-02T02:21:45.508Z,99.90
2022-09-02T02:24:12.632Z,99.90
2022-09-02T02:26:39.440Z,99.90
2022-09-02T02:29:06.571Z,99.90
2022-09-02T02:31:33.649Z,99.90
2022-09-02T02:34:01.819Z,99.90
2022-09-02T02:36:28.755Z,99.90
2022-09-02T02:38:56.211Z,99.90
2022-09-02T02:41:23.565Z,99.90
2022-09-02T02:43:50.512Z,99.90
2022-09-02T02:46:18.430Z,99.90
2022-09-02T02:48:45.978Z,99.90
2022-09-02T02:51:12.908Z,99.90
2022-09-02T02:53:39.793Z,99.90
2022-09-02T02:56:07.991Z,99.90
2022-09-02T02:58:35.347Z,99.90
2022-09-02T03:01:02.283Z,99.90
2022-09-02T03:03:29.687Z,99.90
2022-09-02T03:05:57.215Z,99.90
2022-09-02T03:08:26.754Z,99.90
2022-09-02T03:10:56.043Z,99.90
2022-09-02T03:13:24.543Z,99.90
2022-09-02T03:15:52.320Z,99.90
2022-09-02T03:18:21.021Z,99.90
2022-09-02T03:20:48.078Z,99.90
2022-09-02T03:23:15.160Z,99.90
2022-09-02T03:25:44.448Z,99.90
2022-09-02T03:28:12.684Z,99.90
2022-09-02T03:30:41.723Z,99.90
2022-09-02T03:33:08.993Z,99.90
2022-09-02T03:35:42.225Z,99.90
2022-09-02T03:38:10.960Z,99.90
2022-09-02T03:40:38.577Z,99.90
2022-09-02T03:43:05.558Z,99.90
2022-09-02T03:45:32.542Z,99.90
2022-09-02T03:47:59.959Z,99.90
2022-09-02T03:50:36.435Z,99.90
2022-09-02T03:53:04.554Z,99.90
2022-09-02T03:55:32.485Z,99.90
2022-09-02T03:57:59.699Z,99.90
2022-09-02T04:00:31.967Z,99.90
2022-09-02T04:03:01.500Z,99.90
2022-09-02T04:05:29.095Z,99.90
2022-09-02T04:07:57.340Z,99.90
2022-09-02T04:10:25.354Z,99.90
2022-09-02T04:12:52.954Z,99.90
2022-09-02T04:15:21.330Z,99.90
2022-09-02T04:19:03.958Z,99.90
2022-09-02T04:21:35.062Z,99.90
2022-09-02T04:24:02.005Z,99.90
2022-09-02T04:26:29.179Z,99.90
2022-09-02T04:28:56.357Z,99.90
2022-09-02T04:31:25.842Z,99.90
2022-09-02T04:33:53.614Z,99.90
2022-09-02T04:36:22.343Z,99.90
2022-09-02T04:38:51.944Z,99.90
2022-09-02T04:41:25.273Z,99.90
2022-09-02T04:43:55.176Z,99.90
2022-09-02T04:46:34.370Z,99.90
2022-09-02T04:49:03.023Z,99.90
2022-09-02T04:51:30.286Z,99.90
2022-09-02T04:53:57.477Z,99.90
2022-09-02T04:56:28.606Z,99.90
2022-09-02T04:58:56.957Z,99.90
2022-09-02T05:01:28.796Z,99.90
2022-09-02T05:03:56.035Z,99.90
2022-09-02T05:06:27.405Z,99.90
2022-09-02T05:08:57.430Z,99.90
2022-09-02T05:11:28.568Z,99.90
2022-09-02T05:13:59.185Z,99.90
2022-09-02T05:16:30.498Z,99.90
2022-09-02T05:18:58.454Z,99.90
2022-09-02T05:21:25.280Z,99.90
2022-09-02T05:23:54.732Z,99.90
2022-09-02T05:26:22.835Z,99.90
2022-09-02T05:28:51.192Z,99.90
2022-09-02T05:31:21.027Z,99.90
2022-09-02T05:33:48.771Z,99.90
2022-09-02T05:36:21.303Z,99.90
2022-09-02T05:38:49.632Z,99.90
2022-09-02T05:41:23.493Z,99.90
2022-09-02T05:43:53.985Z,99.90
2022-09-02T05:46:24.483Z,99.90
2022-09-02T05:49:17.989Z,99.90
2022-09-02T05:51:49.995Z,99.90
2022-09-02T05:54:49.643Z,99.90
2022-09-02T05:57:18.089Z,99.90
2022-09-02T05:59:46.033Z,99.90
2022-09-02T06:02:15.148Z,99.90
2022-09-02T06:04:47.106Z,99.90
2022-09-02T06:07:16.142Z,99.90
2022-09-02T06:09:44.683Z,99.90
2022-09-02T06:12:15.202Z,99.90
2022-09-02T06:14:42.885Z,99.90
2022-09-02T06:17:10.124Z,99.90
2022-09-02T06:19:37.308Z,99.90
2022-09-02T06:22:05.972Z,99.90
2022-09-02T06:24:33.487Z,99.90
2022-09-02T06:27:01.835Z,99.90
2022-09-02T06:29:29.835Z,99.90
2022-09-02T06:31:56.678Z,99.90
2022-09-02T06:34:27.107Z,99.90
2022-09-02T06:36:55.444Z,99.90
2022-09-02T06:39:25.806Z,99.90
2022-09-02T06:41:53.075Z,99.90
2022-09-02T06:44:21.737Z,99.90
2022-09-02T06:46:57.228Z,99.90
2022-09-02T06:49:25.943Z,99.90
2022-09-02T06:51:55.623Z,99.90
2022-09-02T06:54:23.864Z,99.90
2022-09-02T06:56:52.082Z,99.90
2022-09-02T06:59:20.823Z,99.90
2022-09-02T07:01:48.346Z,99.90
2022-09-02T07:04:35.361Z,99.90
2022-09-02T07:07:06.355Z,99.90
2022-09-02T07:09:33.289Z,99.90
2022-09-02T07:12:04.938Z,99.90
2022-09-02T07:14:38.690Z,99.90
2022-09-02T07:17:06.373Z,99.90
2022-09-02T07:19:33.956Z,99.90
2022-09-02T07:22:03.087Z,99.90
2022-09-02T07:24:29.962Z,99.90
2022-09-02T07:26:56.877Z,99.90
2022-09-02T07:29:24.222Z,99.90
2022-09-02T07:31:51.572Z,99.90
2022-09-02T07:34:19.271Z,99.90
2022-09-02T07:36:48.598Z,99.90
2022-09-02T07:39:19.586Z,99.90
2022-09-02T07:41:51.273Z,99.90
2022-09-02T07:44:21.806Z,99.90
2022-09-02T07:46:48.773Z,99.90
2022-09-02T07:49:18.910Z,99.90
2022-09-02T07:51:49.937Z,99.90
2022-09-02T07:54:21.289Z,99.90
2022-09-02T07:56:49.782Z,99.90
2022-09-02T07:59:16.966Z,99.90
2022-09-02T08:01:44.818Z,99.90
2022-09-02T08:04:13.430Z,99.90
2022-09-02T08:06:40.983Z,99.90
2022-09-02T08:09:11.312Z,99.90
2022-09-02T08:11:42.277Z,99.90
2022-09-02T08:14:12.918Z,99.90
2022-09-02T08:16:40.875Z,99.90
2022-09-02T08:19:08.950Z,99.90
2022-09-02T08:21:36.499Z,99.90
2022-09-02T08:24:04.083Z,99.90
2022-09-02T08:26:32.030Z,99.90
2022-09-02T08:28:58.931Z,99.90
2022-09-02T08:31:26.217Z,99.90
2022-09-02T08:33:53.078Z,99.90
2022-09-02T08:36:21.059Z,99.90
2022-09-02T08:38:48.042Z,99.90
2022-09-02T08:41:23.400Z,99.90
2022-09-02T08:43:53.352Z,99.90
2022-09-02T08:46:25.894Z,99.90
2022-09-02T08:48:54.137Z,99.90
2022-09-02T08:51:37.537Z,99.90
2022-09-02T08:54:28.093Z,99.90
2022-09-02T08:56:59.049Z,99.90
2022-09-02T08:59:28.559Z,99.90
2022-09-02T09:02:36.361Z,99.90
2022-09-02T09:05:42.052Z,99.90
2022-09-02T09:08:31.380Z,99.90
2022-09-02T09:11:29.759Z,99.90
2022-09-02T09:14:29.434Z,99.90
2022-09-02T09:17:06.820Z,99.90
2022-09-02T09:19:55.290Z,99.90
2022-09-02T09:22:37.367Z,99.90
2022-09-02T09:25:12.872Z,99.90
2022-09-02T09:27:40.907Z,99.90
2022-09-02T09:30:14.438Z,99.90
2022-09-02T09:32:52.923Z,99.90
2022-09-02T09:35:19.806Z,99.90
2022-09-02T09:37:51.897Z,99.90
2022-09-02T09:40:30.978Z,99.90
2022-09-02T09:43:14.917Z,99.90
2022-09-02T09:45:48.277Z,99.90
2022-09-02T09:48:38.407Z,99.90
2022-09-02T09:51:06.352Z,98.70
2022-09-02T09:53:37.418Z,99.90
2022-09-02T09:56:05.583Z,98.20
2022-09-02T09:58:41.909Z,97.20
2022-09-02T10:01:22.348Z,97.60
2022-09-02T10:04:20.826Z,97.60
2022-09-02T10:06:53.358Z,97.50
2022-09-02T10:09:20.630Z,96.90
2022-09-02T10:12:05.573Z,96.80
2022-09-02T10:14:46.498Z,97.20
2022-09-02T10:17:36.223Z,96.00
2022-09-02T10:20:53.140Z,97.20
2022-09-02T10:24:05.543Z,97.80
2022-09-02T10:26:43.308Z,97.30
2022-09-02T10:29:41.178Z,97.60
2022-09-02T10:32:46.996Z,96.60
2022-09-02T10:35:48.143Z,97.20
2022-09-02T10:38:37.902Z,96.90
2022-09-02T10:41:20.600Z,97.00
2022-09-02T10:44:06.449Z,97.30
2022-09-02T10:46:55.423Z,96.10
2022-09-02T10:50:02.837Z,95.80
2022-09-02T10:53:17.669Z,95.90
2022-09-02T10:56:23.630Z,95.10
2022-09-02T10:59:09.423Z,96.40
2022-09-02T11:01:46.979Z,95.20
2022-09-02T11:04:39.335Z,94.70
2022-09-02T11:07:14.833Z,93.40
2022-09-02T11:09:46.208Z,94.00
2022-09-02T11:12:27.359Z,94.70
2022-09-02T11:15:22.063Z,93.60
2022-09-02T11:18:03.813Z,93.10
2022-09-02T11:21:33.115Z,93.30
2022-09-02T11:24:11.322Z,94.90
2022-09-02T11:26:49.781Z,92.80
2022-09-02T11:29:36.975Z,92.80
2022-09-02T11:32:32.054Z,93.10
2022-09-02T11:35:07.487Z,92.30
2022-09-02T11:37:53.514Z,93.20
2022-09-02T11:44:21.481Z,92.50
2022-09-02T11:47:09.233Z,92.20
2022-09-02T11:50:05.035Z,91.30
2022-09-02T11:53:03.466Z,92.00
2022-09-02T11:55:56.676Z,91.70
2022-09-02T11:58:53.008Z,91.90
2022-09-02T12:01:33.306Z,91.60
2022-09-02T12:07:09.426Z,88.20
2022-09-02T12:09:56.897Z,88.70
2022-09-02T12:12:39.793Z,87.90
2022-09-02T12:15:07.695Z,89.00
2022-09-02T12:17:38.679Z,87.70
2022-09-02T12:20:10.467Z,87.80
2022-09-02T12:22:41.829Z,88.70
2022-09-02T12:25:28.352Z,90.10
2022-09-02T12:52:48.466Z,87.90
2022-09-02T12:55:33.381Z,88.00
2022-09-02T12:58:23.149Z,88.10
2022-09-02T13:00:50.209Z,86.40
2022-09-02T13:03:29.630Z,88.50
2022-09-02T13:06:12.750Z,88.40
2022-09-02T13:09:11.402Z,89.90
2022-09-02T13:12:17.099Z,88.80
2022-09-02T13:15:14.662Z,87.90
2022-09-02T13:18:16.300Z,87.60
2022-09-02T13:21:04.304Z,87.90
2022-09-02T13:24:11.533Z,89.70
2022-09-02T13:27:03.000Z,89.80
2022-09-02T13:30:03.834Z,86.60
2022-09-02T13:32:33.152Z,85.80
2022-09-02T13:35:07.720Z,86.80
2022-09-02T13:37:39.784Z,84.90
2022-09-02T13:40:20.626Z,85.50
2022-09-02T13:43:04.009Z,85.70
2022-09-02T13:45:34.251Z,84.70
2022-09-02T13:48:32.546Z,83.50
2022-09-02T13:51:14.609Z,84.20
2022-09-02T13:54:05.657Z,83.20
2022-09-02T13:56:35.409Z,85.80
2022-09-02T13:59:02.194Z,84.90
2022-09-02T14:01:40.008Z,84.30
2022-09-02T14:04:14.246Z,85.40
2022-09-02T14:06:47.810Z,88.50
2022-09-02T14:09:29.638Z,85.90
2022-09-02T14:11:58.830Z,86.80
2022-09-02T14:14:26.924Z,85.40
2022-09-02T14:17:26.881Z,84.90
2022-09-02T14:20:29.441Z,84.20
2022-09-02T14:22:59.002Z,86.60
2022-09-02T14:25:30.242Z,85.50
2022-09-02T14:28:00.990Z,85.60
2022-09-02T14:30:38.935Z,84.00
2022-09-02T14:33:43.491Z,84.70
2022-09-02T14:36:37.689Z,85.90
2022-09-02T14:39:17.046Z,81.70
2022-09-02T14:41:54.204Z,83.70
2022-09-02T14:44:33.967Z,83.80
2022-09-02T14:47:05.743Z,82.00
2022-09-02T14:49:42.415Z,83.50
2022-09-02T14:52:22.671Z,84.00
2022-09-02T14:54:53.007Z,83.90
2022-09-02T14:57:32.986Z,83.30
2022-09-02T15:00:06.313Z,85.00
2022-09-02T15:02:36.111Z,85.30
2022-09-02T15:05:07.995Z,81.10
2022-09-02T15:07:35.053Z,82.00
2022-09-02T15:10:02.375Z,83.80
2022-09-02T15:12:33.534Z,83.60
2022-09-02T15:15:01.125Z,81.00
2022-09-02T15:17:29.460Z,83.80
2022-09-02T15:19:56.734Z,83.00
2022-09-02T15:22:23.982Z,83.10
2022-09-02T15:24:53.054Z,82.70
2022-09-02T15:27:21.725Z,84.70
2022-09-02T15:29:49.356Z,86.00
2022-09-02T15:32:17.243Z,82.80
2022-09-02T15:34:52.146Z,82.60
2022-09-02T15:37:19.289Z,83.70
2022-09-02T15:39:46.201Z,82.80
2022-09-02T15:42:13.122Z,82.40
2022-09-02T15:44:40.730Z,83.80
2022-09-02T15:47:07.742Z,83.90
2022-09-02T15:49:34.762Z,82.40
2022-09-02T15:52:02.977Z,83.40
2022-09-02T15:54:32.070Z,83.50
2022-09-02T15:56:59.427Z,84.30
2022-09-02T15:59:28.049Z,84.20
2022-09-02T16:01:59.099Z,85.60
2022-09-02T16:04:27.431Z,84.70
2022-09-02T16:06:54.435Z,86.60
2022-09-02T16:09:22.349Z,86.00
2022-09-02T16:11:52.548Z,84.30
2022-09-02T16:14:21.554Z,84.70
2022-09-02T16:16:50.854Z,86.70
2022-09-02T16:19:23.714Z,87.00
2022-09-02T16:21:51.961Z,85.00
2022-09-02T16:24:21.534Z,86.90
2022-09-02T16:26:50.055Z,85.20
2022-09-02T16:29:18.016Z,85.80
2022-09-02T16:32:02.291Z,85.20
2022-09-02T16:34:38.295Z,86.30
2022-09-02T16:37:06.136Z,86.20
2022-09-02T16:39:33.092Z,87.70
2022-09-02T16:42:04.163Z,87.10
2022-09-02T16:44:33.892Z,85.90
2022-09-02T16:47:00.907Z,86.50
2022-09-02T16:49:27.835Z,87.80
2022-09-02T16:51:58.422Z,89.30
2022-09-02T16:54:31.249Z,88.30
2022-09-02T16:56:59.067Z,90.00
2022-09-02T16:59:25.903Z,87.90
2022-09-02T17:01:52.789Z,89.50
2022-09-02T17:04:19.684Z,89.20
2022-09-02T17:06:46.489Z,90.70
2022-09-02T17:09:13.405Z,88.90
2022-09-02T17:11:41.345Z,90.00
2022-09-02T17:14:18.710Z,89.70
2022-09-02T17:16:49.219Z,90.30
2022-09-02T17:19:21.803Z,90.70
2022-09-02T17:21:51.716Z,90.70
2022-09-02T17:24:21.882Z,91.00
2022-09-02T17:26:51.837Z,91.30
2022-09-02T17:29:47.654Z,91.50
2022-09-02T17:32:08.750Z,92.60
2022-09-02T17:34:36.482Z,92.60
2022-09-02T17:37:05.210Z,92.60
2022-09-02T17:39:33.949Z,93.60
2022-09-02T17:42:02.289Z,93.40
2022-09-02T17:44:34.923Z,93.30
2022-09-02T17:47:05.864Z,93.60
2022-09-02T17:49:36.440Z,93.50
2022-09-02T17:52:08.250Z,93.50
2022-09-02T17:54:37.559Z,93.70
2022-09-02T17:57:32.532Z,93.50
2022-09-02T18:00:05.900Z,93.90
2022-09-02T18:03:13.895Z,93.70
2022-09-02T18:06:11.149Z,94.40
2022-09-02T18:09:01.049Z,93.70
2022-09-02T18:11:29.552Z,94.20
2022-09-02T18:14:12.122Z,94.50
2022-09-02T18:17:03.596Z,94.10
2022-09-02T18:19:48.312Z,94.40
2022-09-02T18:22:55.472Z,95.00
2022-09-02T18:26:01.513Z,94.60
2022-09-02T18:28:47.654Z,95.60
2022-09-02T18:31:56.712Z,95.80
2022-09-02T18:35:20.202Z,96.10
2022-09-02T18:38:05.966Z,96.40
2022-09-02T18:41:01.564Z,96.70
2022-09-02T18:44:07.666Z,96.90
2022-09-02T18:46:59.608Z,97.30
2022-09-02T18:49:30.472Z,97.60
2022-09-02T18:52:00.938Z,98.30
2022-09-02T18:54:37.738Z,98.60
2022-09-02T18:57:09.168Z,98.60
2022-09-02T18:59:52.128Z,99.20
2022-09-02T19:02:31.009Z,99.90
2022-09-02T19:05:01.343Z,99.50
2022-09-02T19:07:59.224Z,99.70
2022-09-02T19:10:30.700Z,99.90
2022-09-02T19:13:02.408Z,99.90
2022-09-02T19:15:29.312Z,99.90
2022-09-02T19:17:56.343Z,99.90
2022-09-02T19:20:23.933Z,99.90
2022-09-02T19:22:54.021Z,99.90
2022-09-02T19:25:26.009Z,99.90
2022-09-02T19:27:55.172Z,99.90
2022-09-02T19:30:23.318Z,99.90
2022-09-02T19:32:55.133Z,99.90
2022-09-02T19:35:28.255Z,99.90
2022-09-02T19:37:55.407Z,99.90
2022-09-02T19:41:04.198Z,99.90
2022-09-02T19:43:31.502Z,99.90
2022-09-02T19:45:59.818Z,99.90
2022-09-02T19:48:26.744Z,99.90
2022-09-02T19:50:53.629Z,99.90
2022-09-02T19:53:27.865Z,99.90
2022-09-02T19:55:54.662Z,99.90
2022-09-02T19:58:21.931Z,99.90
2022-09-02T20:00:48.965Z,99.90
2022-09-02T20:03:16.297Z,99.90
2022-09-02T20:05:43.137Z,99.90
2022-09-02T20:08:10.055Z,99.90
2022-09-02T20:10:39.326Z,99.90
2022-09-02T20:13:09.287Z,99.90
2022-09-02T20:15:39.611Z,99.90
2022-09-02T20:18:13.745Z,99.90
2022-09-02T20:20:46.556Z,99.90
2022-09-02T20:23:17.211Z,99.90
2022-09-02T20:26:23.819Z,99.90
2022-09-02T20:29:25.890Z,99.90
2022-09-02T20:32:51.646Z,99.90
2022-09-02T20:35:52.218Z,99.90
2022-09-02T20:38:51.292Z,99.90
2022-09-02T20:41:25.042Z,99.90
2022-09-02T20:44:13.587Z,99.90
2022-09-02T20:47:28.713Z,99.90
2022-09-02T20:50:29.215Z,99.90
2022-09-02T20:53:07.884Z,99.90
2022-09-02T20:55:54.534Z,99.90
2022-09-02T20:58:55.214Z,99.90
2022-09-02T21:01:34.545Z,99.90
2022-09-02T21:04:34.716Z,99.90
2022-09-02T21:07:13.749Z,99.90
2022-09-02T21:10:08.800Z,99.90
2022-09-02T21:12:40.811Z,99.90
2022-09-02T21:15:24.563Z,99.90
2022-09-02T21:18:34.846Z,99.90
2022-09-02T21:21:28.345Z,99.90
2022-09-02T21:24:15.706Z,99.90
2022-09-02T21:26:56.807Z,99.90
2022-09-02T21:29:46.986Z,99.90
2022-09-02T21:32:42.940Z,99.90
2022-09-02T21:35:16.160Z,99.90
2022-09-02T21:37:45.268Z,99.90
2022-09-02T21:40:25.522Z,99.90
2022-09-02T21:43:32.656Z,99.90
2022-09-02T21:46:20.723Z,99.90
2022-09-02T21:49:15.932Z,99.90
2022-09-02T21:51:52.138Z,99.90
2022-09-02T21:54:40.671Z,99.90
2022-09-02T21:57:23.128Z,99.90
2022-09-02T22:00:02.802Z,99.90
2022-09-02T22:03:04.061Z,99.90
2022-09-02T22:06:09.484Z,99.90
2022-09-02T22:08:44.671Z,99.90
2022-09-02T22:11:37.256Z,99.90
2022-09-02T22:14:23.862Z,99.90
2022-09-02T22:17:01.768Z,99.90
2022-09-02T22:19:34.224Z,99.90
2022-09-02T22:22:12.187Z,99.90
2022-09-02T22:24:40.482Z,99.90
2022-09-02T22:27:35.337Z,99.90
2022-09-02T22:30:14.860Z,99.90
2022-09-02T22:32:49.483Z,99.90
2022-09-02T22:35:58.542Z,99.90
2022-09-02T22:38:31.196Z,99.90
2022-09-02T22:41:12.274Z,99.90
2022-09-02T22:43:56.679Z,99.90
2022-09-02T22:46:59.197Z,99.90
2022-09-02T22:49:48.542Z,99.90
2022-09-02T22:52:50.500Z,99.90
2022-09-02T22:55:54.465Z,99.90
2022-09-02T22:58:39.750Z,99.90
2022-09-02T23:01:55.952Z,99.90
2022-09-02T23:04:59.938Z,99.90
2022-09-02T23:07:26.763Z,99.90
2022-09-02T23:09:59.010Z,99.90
2022-09-02T23:12:44.925Z,99.90
2022-09-02T23:15:37.029Z,99.90
2022-09-02T23:18:28.392Z,99.90
2022-09-02T23:21:22.522Z,99.90
2022-09-02T23:24:03.186Z,99.90
2022-09-02T23:26:58.120Z,99.90
2022-09-02T23:29:28.657Z,99.90
2022-09-02T23:32:26.093Z,99.90
2022-09-02T23:35:11.317Z,99.90
2022-09-02T23:38:22.824Z,99.90
2022-09-02T23:41:11.964Z,99.90
2022-09-02T23:43:39.486Z,99.90
2022-09-02T23:46:18.108Z,99.90
2022-09-02T23:49:14.882Z,99.90
2022-09-02T23:52:21.234Z,99.90
2022-09-02T23:55:00.037Z,99.90
2022-09-02T23:57:46.385Z,99.90
